sensor_id;sensor_type;location;lat;lon;timestamp;temperature;humidity
74458;SHT31;62896;51.032;3.712;2023-07-02T00:03:19;17.2;80
74458;SHT31;62896;51.032;3.712;2023-07-02T00:06:39;17.2;80
74458;SHT31;62896;51.032;3.712;2023-07-02T00:09:59;17.2;80
74458;SHT31;62896;51.032;3.712;2023-07-02T00:13:19;17.2;80
74458;SHT31;62896;51.032;3.712;2023-07-02T00:16:39;17.2;80
74458;SHT31;62896;51.032;3.712;2023-07-02T00:19:59;17.2;80
74458;SHT31;62896;51.032;3.712;2023-07-02T00:23:19;17.1;80
74458;SHT31;62896;51.032;3.712;2023-07-02T00:26:39;17.1;80
74458;SHT31;62896;51.032;3.712;2023-07-02T00:29:59;17.1;80
74458;SHT31;62896;51.032;3.712;2023-07-02T00:33:19;17.1;81
74458;SHT31;62896;51.032;3.712;2023-07-02T00:36:39;17.1;81
74458;SHT31;62896;51.032;3.712;2023-07-02T00:39:59;17.1;81
74458;SHT31;62896;51.032;3.712;2023-07-02T00:43:19;17;81
74458;SHT31;62896;51.032;3.712;2023-07-02T00:46:39;17;81
74458;SHT31;62896;51.032;3.712;2023-07-02T00:49:59;17;81
74458;SHT31;62896;51.032;3.712;2023-07-02T00:53:19;17;82
74458;SHT31;62896;51.032;3.712;2023-07-02T00:56:39;17;82
74458;SHT31;62896;51.032;3.712;2023-07-02T00:59:59;17;82
74458;SHT31;62896;51.032;3.712;2023-07-02T01:03:19;16.9;82
74458;SHT31;62896;51.032;3.712;2023-07-02T01:06:39;16.9;82
74458;SHT31;62896;51.032;3.712;2023-07-02T01:09:59;16.9;82
74458;SHT31;62896;51.032;3.712;2023-07-02T01:13:19;16.8;83
74458;SHT31;62896;51.032;3.712;2023-07-02T01:16:39;16.8;83
74458;SHT31;62896;51.032;3.712;2023-07-02T01:19:59;16.8;83
74458;SHT31;62896;51.032;3.712;2023-07-02T01:23:19;16.7;83
74458;SHT31;62896;51.032;3.712;2023-07-02T01:26:39;16.7;83
74458;SHT31;62896;51.032;3.712;2023-07-02T01:29:59;16.7;83
74458;SHT31;62896;51.032;3.712;2023-07-02T01:33:19;16.6;84
74458;SHT31;62896;51.032;3.712;2023-07-02T01:36:39;16.6;84
74458;SHT31;62896;51.032;3.712;2023-07-02T01:39:59;16.6;84
74458;SHT31;62896;51.032;3.712;2023-07-02T01:43:19;16.5;85
74458;SHT31;62896;51.032;3.712;2023-07-02T01:46:39;16.5;85
74458;SHT31;62896;51.032;3.712;2023-07-02T01:49:59;16.5;85
74458;SHT31;62896;51.032;3.712;2023-07-02T01:53:19;16.4;85
74458;SHT31;62896;51.032;3.712;2023-07-02T01:56:39;16.4;85
74458;SHT31;62896;51.032;3.712;2023-07-02T01:59:59;16.4;85
74458;SHT31;62896;51.032;3.712;2023-07-02T02:03:19;16.3;86
74458;SHT31;62896;51.032;3.712;2023-07-02T02:06:39;16.3;86
74458;SHT31;62896;51.032;3.712;2023-07-02T02:09:59;16.3;86
74458;SHT31;62896;51.032;3.712;2023-07-02T02:13:19;16.2;86
74458;SHT31;62896;51.032;3.712;2023-07-02T02:16:39;16.2;86
74458;SHT31;62896;51.032;3.712;2023-07-02T02:19:59;16.2;86
74458;SHT31;62896;51.032;3.712;2023-07-02T02:23:19;16.1;87
74458;SHT31;62896;51.032;3.712;2023-07-02T02:26:39;16.1;87
74458;SHT31;62896;51.032;3.712;2023-07-02T02:29:59;16.1;87
74458;SHT31;62896;51.032;3.712;2023-07-02T02:33:20;16.1;87
74458;SHT31;62896;51.032;3.712;2023-07-02T02:36:39;16.1;87
74458;SHT31;62896;51.032;3.712;2023-07-02T02:39:59;16.1;87
74458;SHT31;62896;51.032;3.712;2023-07-02T02:43:19;16.1;87
74458;SHT31;62896;51.032;3.712;2023-07-02T02:46:39;16.1;87
74458;SHT31;62896;51.032;3.712;2023-07-02T02:49:59;16.1;87
74458;SHT31;62896;51.032;3.712;2023-07-02T02:53:19;16.1;87
74458;SHT31;62896;51.032;3.712;2023-07-02T02:56:39;16.1;87
74458;SHT31;62896;51.032;3.712;2023-07-02T02:59:59;16.1;87
74458;SHT31;62896;51.032;3.712;2023-07-02T03:03:19;16;88
74458;SHT31;62896;51.032;3.712;2023-07-02T03:06:39;16;88
74458;SHT31;62896;51.032;3.712;2023-07-02T03:09:59;16;88
74458;SHT31;62896;51.032;3.712;2023-07-02T03:13:19;16;88
74458;SHT31;62896;51.032;3.712;2023-07-02T03:16:39;16;88
74458;SHT31;62896;51.032;3.712;2023-07-02T03:19:59;16;88
74458;SHT31;62896;51.032;3.712;2023-07-02T03:23:19;16;88
74458;SHT31;62896;51.032;3.712;2023-07-02T03:26:39;16;88
74458;SHT31;62896;51.032;3.712;2023-07-02T03:29:59;16;88
74458;SHT31;62896;51.032;3.712;2023-07-02T03:33:19;16;88
74458;SHT31;62896;51.032;3.712;2023-07-02T03:36:39;16;88
74458;SHT31;62896;51.032;3.712;2023-07-02T03:39:59;16;88
74458;SHT31;62896;51.032;3.712;2023-07-02T03:43:19;16;88
74458;SHT31;62896;51.032;3.712;2023-07-02T03:46:39;16;88
74458;SHT31;62896;51.032;3.712;2023-07-02T03:49:59;16;88
74458;SHT31;62896;51.032;3.712;2023-07-02T03:53:19;16.1;87
74458;SHT31;62896;51.032;3.712;2023-07-02T03:56:39;16.1;87
74458;SHT31;62896;51.032;3.712;2023-07-02T03:59:59;16.1;87
74458;SHT31;62896;51.032;3.712;2023-07-02T04:03:19;16.1;87
74458;SHT31;62896;51.032;3.712;2023-07-02T04:06:39;16.1;87
74458;SHT31;62896;51.032;3.712;2023-07-02T04:09:59;16.1;87
74458;SHT31;62896;51.032;3.712;2023-07-02T04:13:19;16.1;88
74458;SHT31;62896;51.032;3.712;2023-07-02T04:16:39;16.1;88
74458;SHT31;62896;51.032;3.712;2023-07-02T04:19:59;16.1;88
74458;SHT31;62896;51.032;3.712;2023-07-02T04:23:19;16.1;88
74458;SHT31;62896;51.032;3.712;2023-07-02T04:26:39;16.1;88
74458;SHT31;62896;51.032;3.712;2023-07-02T04:29:59;16.1;88
74458;SHT31;62896;51.032;3.712;2023-07-02T04:33:19;16.1;88
74458;SHT31;62896;51.032;3.712;2023-07-02T04:36:39;16.1;88
74458;SHT31;62896;51.032;3.712;2023-07-02T04:39:59;16.1;88
74458;SHT31;62896;51.032;3.712;2023-07-02T04:43:19;16.1;88
74458;SHT31;62896;51.032;3.712;2023-07-02T04:46:39;16.1;88
74458;SHT31;62896;51.032;3.712;2023-07-02T04:49:59;16.1;88
74458;SHT31;62896;51.032;3.712;2023-07-02T04:53:19;16.2;88
74458;SHT31;62896;51.032;3.712;2023-07-02T04:56:39;16.2;88
74458;SHT31;62896;51.032;3.712;2023-07-02T04:59:59;16.2;88
74458;SHT31;62896;51.032;3.712;2023-07-02T05:03:19;16.3;87
74458;SHT31;62896;51.032;3.712;2023-07-02T05:06:39;16.3;87
74458;SHT31;62896;51.032;3.712;2023-07-02T05:09:59;16.3;87
74458;SHT31;62896;51.032;3.712;2023-07-02T05:13:19;16.5;85
74458;SHT31;62896;51.032;3.712;2023-07-02T05:16:39;16.5;85
74458;SHT31;62896;51.032;3.712;2023-07-02T05:19:59;16.5;85
74458;SHT31;62896;51.032;3.712;2023-07-02T05:23:19;16.6;84
74458;SHT31;62896;51.032;3.712;2023-07-02T05:26:39;16.6;84
74458;SHT31;62896;51.032;3.712;2023-07-02T05:29:59;16.6;84
74458;SHT31;62896;51.032;3.712;2023-07-02T05:33:19;16.8;83
74458;SHT31;62896;51.032;3.712;2023-07-02T05:36:39;16.8;83
74458;SHT31;62896;51.032;3.712;2023-07-02T05:39:59;16.8;83
74458;SHT31;62896;51.032;3.712;2023-07-02T05:43:19;16.9;82
74458;SHT31;62896;51.032;3.712;2023-07-02T05:46:39;16.9;82
74458;SHT31;62896;51.032;3.712;2023-07-02T05:49:59;16.9;82
74458;SHT31;62896;51.032;3.712;2023-07-02T05:53:19;17.1;81
74458;SHT31;62896;51.032;3.712;2023-07-02T05:56:39;17.1;81
74458;SHT31;62896;51.032;3.712;2023-07-02T05:59:59;17.1;81
74458;SHT31;62896;51.032;3.712;2023-07-02T06:03:19;17.3;80
74458;SHT31;62896;51.032;3.712;2023-07-02T06:06:39;17.3;80
74458;SHT31;62896;51.032;3.712;2023-07-02T06:09:59;17.3;80
74458;SHT31;62896;51.032;3.712;2023-07-02T06:13:19;17.5;78
74458;SHT31;62896;51.032;3.712;2023-07-02T06:16:39;17.5;78
74458;SHT31;62896;51.032;3.712;2023-07-02T06:19:59;17.5;78
74458;SHT31;62896;51.032;3.712;2023-07-02T06:23:19;17.7;76
74458;SHT31;62896;51.032;3.712;2023-07-02T06:26:39;17.7;76
74458;SHT31;62896;51.032;3.712;2023-07-02T06:29:59;17.7;76
74458;SHT31;62896;51.032;3.712;2023-07-02T06:33:19;17.8;74
74458;SHT31;62896;51.032;3.712;2023-07-02T06:36:39;17.8;74
74458;SHT31;62896;51.032;3.712;2023-07-02T06:39:59;17.8;74
74458;SHT31;62896;51.032;3.712;2023-07-02T06:43:19;17.9;74
74458;SHT31;62896;51.032;3.712;2023-07-02T06:46:39;17.9;74
74458;SHT31;62896;51.032;3.712;2023-07-02T06:49:59;17.9;74
74458;SHT31;62896;51.032;3.712;2023-07-02T06:53:19;18.2;71
74458;SHT31;62896;51.032;3.712;2023-07-02T06:56:39;18.2;71
74458;SHT31;62896;51.032;3.712;2023-07-02T06:59:59;18.2;71
74458;SHT31;62896;51.032;3.712;2023-07-02T07:03:19;18.4;70
74458;SHT31;62896;51.032;3.712;2023-07-02T07:06:39;18.4;70
74458;SHT31;62896;51.032;3.712;2023-07-02T07:09:59;18.4;70
74458;SHT31;62896;51.032;3.712;2023-07-02T07:13:19;18.6;67
74458;SHT31;62896;51.032;3.712;2023-07-02T07:16:39;18.6;67
74458;SHT31;62896;51.032;3.712;2023-07-02T07:19:59;18.6;67
74458;SHT31;62896;51.032;3.712;2023-07-02T07:23:19;18.8;66
74458;SHT31;62896;51.032;3.712;2023-07-02T07:26:39;18.8;66
74458;SHT31;62896;51.032;3.712;2023-07-02T07:29:59;18.8;66
74458;SHT31;62896;51.032;3.712;2023-07-02T07:33:19;18.8;66
74458;SHT31;62896;51.032;3.712;2023-07-02T07:36:39;18.8;66
74458;SHT31;62896;51.032;3.712;2023-07-02T07:39:59;18.8;66
74458;SHT31;62896;51.032;3.712;2023-07-02T07:43:19;18.9;65
74458;SHT31;62896;51.032;3.712;2023-07-02T07:46:39;18.9;65
74458;SHT31;62896;51.032;3.712;2023-07-02T07:49:59;18.9;65
74458;SHT31;62896;51.032;3.712;2023-07-02T07:53:19;19.1;63
74458;SHT31;62896;51.032;3.712;2023-07-02T07:56:39;19.1;63
74458;SHT31;62896;51.032;3.712;2023-07-02T07:59:59;19.1;63
74458;SHT31;62896;51.032;3.712;2023-07-02T08:03:19;19.1;64
74458;SHT31;62896;51.032;3.712;2023-07-02T08:06:39;19.1;64
74458;SHT31;62896;51.032;3.712;2023-07-02T08:09:59;19.1;64
74458;SHT31;62896;51.032;3.712;2023-07-02T08:13:19;19.7;64
74458;SHT31;62896;51.032;3.712;2023-07-02T08:16:39;19.7;64
74458;SHT31;62896;51.032;3.712;2023-07-02T08:19:59;19.7;64
74458;SHT31;62896;51.032;3.712;2023-07-02T08:23:19;19.6;66
74458;SHT31;62896;51.032;3.712;2023-07-02T08:26:39;19.6;66
74458;SHT31;62896;51.032;3.712;2023-07-02T08:29:59;19.6;66
74458;SHT31;62896;51.032;3.712;2023-07-02T08:33:19;20;64
74458;SHT31;62896;51.032;3.712;2023-07-02T08:36:39;20;64
74458;SHT31;62896;51.032;3.712;2023-07-02T08:39:59;20;64
74458;SHT31;62896;51.032;3.712;2023-07-02T08:43:20;19.9;63
74458;SHT31;62896;51.032;3.712;2023-07-02T08:46:39;19.9;63
74458;SHT31;62896;51.032;3.712;2023-07-02T08:49:59;19.9;63
74458;SHT31;62896;51.032;3.712;2023-07-02T08:53:19;19.7;64
74458;SHT31;62896;51.032;3.712;2023-07-02T08:56:39;19.7;64
74458;SHT31;62896;51.032;3.712;2023-07-02T08:59:59;19.7;64
74458;SHT31;62896;51.032;3.712;2023-07-02T09:03:19;19.6;63
74458;SHT31;62896;51.032;3.712;2023-07-02T09:06:39;19.6;63
74458;SHT31;62896;51.032;3.712;2023-07-02T09:09:59;19.6;63
74458;SHT31;62896;51.032;3.712;2023-07-02T09:13:19;20.1;61
74458;SHT31;62896;51.032;3.712;2023-07-02T09:16:39;20.1;61
74458;SHT31;62896;51.032;3.712;2023-07-02T09:19:59;20.1;61
74458;SHT31;62896;51.032;3.712;2023-07-02T09:23:19;19.9;61
74458;SHT31;62896;51.032;3.712;2023-07-02T09:26:41;19.9;61
74458;SHT31;62896;51.032;3.712;2023-07-02T09:30:04;19.9;61
74458;SHT31;62896;51.032;3.712;2023-07-02T09:33:19;19.9;61
74458;SHT31;62896;51.032;3.712;2023-07-02T09:36:39;19.9;61
74458;SHT31;62896;51.032;3.712;2023-07-02T09:39:59;19.9;61
74458;SHT31;62896;51.032;3.712;2023-07-02T09:43:19;20;62
74458;SHT31;62896;51.032;3.712;2023-07-02T09:46:41;20;62
74458;SHT31;62896;51.032;3.712;2023-07-02T09:49:59;20;62
74458;SHT31;62896;51.032;3.712;2023-07-02T09:53:19;20.4;59
74458;SHT31;62896;51.032;3.712;2023-07-02T09:56:39;20.4;59
74458;SHT31;62896;51.032;3.712;2023-07-02T09:59:59;20.4;59
74458;SHT31;62896;51.032;3.712;2023-07-02T10:03:27;20.4;54
74458;SHT31;62896;51.032;3.712;2023-07-02T10:06:47;20.4;54
74458;SHT31;62896;51.032;3.712;2023-07-02T10:09:59;20.4;54
74458;SHT31;62896;51.032;3.712;2023-07-02T10:13:26;20.9;49
74458;SHT31;62896;51.032;3.712;2023-07-02T10:16:55;20.9;49
74458;SHT31;62896;51.032;3.712;2023-07-02T10:20:00;20.9;49
74458;SHT31;62896;51.032;3.712;2023-07-02T10:23:19;21.3;48
74458;SHT31;62896;51.032;3.712;2023-07-02T10:26:50;21.3;48
74458;SHT31;62896;51.032;3.712;2023-07-02T10:29:59;21.3;48
74458;SHT31;62896;51.032;3.712;2023-07-02T10:33:19;21.6;47
74458;SHT31;62896;51.032;3.712;2023-07-02T10:36:39;21.6;47
74458;SHT31;62896;51.032;3.712;2023-07-02T10:39:59;21.6;47
74458;SHT31;62896;51.032;3.712;2023-07-02T10:43:23;21;48
74458;SHT31;62896;51.032;3.712;2023-07-02T10:46:43;21;48
74458;SHT31;62896;51.032;3.712;2023-07-02T10:49:59;21;48
74458;SHT31;62896;51.032;3.712;2023-07-02T10:53:20;20.4;50
74458;SHT31;62896;51.032;3.712;2023-07-02T10:56:40;20.4;50
74458;SHT31;62896;51.032;3.712;2023-07-02T11:00:03;20.4;50
74458;SHT31;62896;51.032;3.712;2023-07-02T11:03:20;21.2;48
74458;SHT31;62896;51.032;3.712;2023-07-02T11:06:39;21.2;48
74458;SHT31;62896;51.032;3.712;2023-07-02T11:09:59;21.2;48
74458;SHT31;62896;51.032;3.712;2023-07-02T11:13:19;21.7;47
74458;SHT31;62896;51.032;3.712;2023-07-02T11:16:39;21.7;47
74458;SHT31;62896;51.032;3.712;2023-07-02T11:19:59;21.7;47
74458;SHT31;62896;51.032;3.712;2023-07-02T11:23:20;21.8;47
74458;SHT31;62896;51.032;3.712;2023-07-02T11:26:40;21.8;47
74458;SHT31;62896;51.032;3.712;2023-07-02T11:29:59;21.8;47
74458;SHT31;62896;51.032;3.712;2023-07-02T11:33:20;21.4;49
74458;SHT31;62896;51.032;3.712;2023-07-02T11:36:39;21.4;49
74458;SHT31;62896;51.032;3.712;2023-07-02T11:39:59;21.4;49
74458;SHT31;62896;51.032;3.712;2023-07-02T11:43:19;21.7;48
74458;SHT31;62896;51.032;3.712;2023-07-02T11:46:39;21.7;48
74458;SHT31;62896;51.032;3.712;2023-07-02T11:49:59;21.7;48
74458;SHT31;62896;51.032;3.712;2023-07-02T11:53:19;21.9;48
74458;SHT31;62896;51.032;3.712;2023-07-02T11:56:39;21.9;48
74458;SHT31;62896;51.032;3.712;2023-07-02T11:59:59;21.9;48
74458;SHT31;62896;51.032;3.712;2023-07-02T12:03:19;22.6;47
74458;SHT31;62896;51.032;3.712;2023-07-02T12:06:39;22.6;47
74458;SHT31;62896;51.032;3.712;2023-07-02T12:09:59;22.6;47
74458;SHT31;62896;51.032;3.712;2023-07-02T12:13:19;22.6;47
74458;SHT31;62896;51.032;3.712;2023-07-02T12:16:39;22.6;47
74458;SHT31;62896;51.032;3.712;2023-07-02T12:19:59;22.6;47
74458;SHT31;62896;51.032;3.712;2023-07-02T12:23:19;23;45
74458;SHT31;62896;51.032;3.712;2023-07-02T12:26:39;23;45
74458;SHT31;62896;51.032;3.712;2023-07-02T12:29:59;23;45
74458;SHT31;62896;51.032;3.712;2023-07-02T12:33:19;23.1;44
74458;SHT31;62896;51.032;3.712;2023-07-02T12:36:40;23.1;44
74458;SHT31;62896;51.032;3.712;2023-07-02T12:39:59;23.1;44
74458;SHT31;62896;51.032;3.712;2023-07-02T12:43:19;23.2;43
74458;SHT31;62896;51.032;3.712;2023-07-02T12:46:39;23.2;43
74458;SHT31;62896;51.032;3.712;2023-07-02T12:49:59;23.2;43
74458;SHT31;62896;51.032;3.712;2023-07-02T12:53:19;24.4;42
74458;SHT31;62896;51.032;3.712;2023-07-02T12:56:39;24.4;42
74458;SHT31;62896;51.032;3.712;2023-07-02T12:59:59;24.4;42
74458;SHT31;62896;51.032;3.712;2023-07-02T13:03:19;24.2;42
74458;SHT31;62896;51.032;3.712;2023-07-02T13:06:39;24.2;42
74458;SHT31;62896;51.032;3.712;2023-07-02T13:09:59;24.2;42
74458;SHT31;62896;51.032;3.712;2023-07-02T13:13:19;25.2;39
74458;SHT31;62896;51.032;3.712;2023-07-02T13:16:39;25.2;39
74458;SHT31;62896;51.032;3.712;2023-07-02T13:19:59;25.2;39
74458;SHT31;62896;51.032;3.712;2023-07-02T13:23:19;24.7;39
74458;SHT31;62896;51.032;3.712;2023-07-02T13:26:39;24.7;39
74458;SHT31;62896;51.032;3.712;2023-07-02T13:29:59;24.7;39
74458;SHT31;62896;51.032;3.712;2023-07-02T13:33:19;24.9;39
74458;SHT31;62896;51.032;3.712;2023-07-02T13:36:39;24.9;39
74458;SHT31;62896;51.032;3.712;2023-07-02T13:39:59;24.9;39
74458;SHT31;62896;51.032;3.712;2023-07-02T13:43:19;24.4;40
74458;SHT31;62896;51.032;3.712;2023-07-02T13:46:39;24.4;40
74458;SHT31;62896;51.032;3.712;2023-07-02T13:49:59;24.4;40
74458;SHT31;62896;51.032;3.712;2023-07-02T13:53:19;25.1;39
74458;SHT31;62896;51.032;3.712;2023-07-02T13:56:39;25.1;39
74458;SHT31;62896;51.032;3.712;2023-07-02T13:59:59;25.1;39
74458;SHT31;62896;51.032;3.712;2023-07-02T14:03:19;24.6;39
74458;SHT31;62896;51.032;3.712;2023-07-02T14:06:39;24.6;39
74458;SHT31;62896;51.032;3.712;2023-07-02T14:09:59;24.6;39
74458;SHT31;62896;51.032;3.712;2023-07-02T14:13:19;25.5;38
74458;SHT31;62896;51.032;3.712;2023-07-02T14:16:39;25.5;38
74458;SHT31;62896;51.032;3.712;2023-07-02T14:19:59;25.5;38
74458;SHT31;62896;51.032;3.712;2023-07-02T14:23:19;24.3;40
74458;SHT31;62896;51.032;3.712;2023-07-02T14:26:39;24.3;40
74458;SHT31;62896;51.032;3.712;2023-07-02T14:29:59;24.3;40
74458;SHT31;62896;51.032;3.712;2023-07-02T14:33:19;23.8;43
74458;SHT31;62896;51.032;3.712;2023-07-02T14:36:39;23.8;43
74458;SHT31;62896;51.032;3.712;2023-07-02T14:39:59;23.8;43
74458;SHT31;62896;51.032;3.712;2023-07-02T14:43:19;24.8;41
74458;SHT31;62896;51.032;3.712;2023-07-02T14:46:39;24.8;41
74458;SHT31;62896;51.032;3.712;2023-07-02T14:49:59;24.8;41
74458;SHT31;62896;51.032;3.712;2023-07-02T14:53:19;25.8;39
74458;SHT31;62896;51.032;3.712;2023-07-02T14:56:39;25.8;39
74458;SHT31;62896;51.032;3.712;2023-07-02T14:59:59;25.8;39
74458;SHT31;62896;51.032;3.712;2023-07-02T15:03:20;24.9;40
74458;SHT31;62896;51.032;3.712;2023-07-02T15:06:39;24.9;40
74458;SHT31;62896;51.032;3.712;2023-07-02T15:09:59;24.9;40
74458;SHT31;62896;51.032;3.712;2023-07-02T15:13:19;24.1;41
74458;SHT31;62896;51.032;3.712;2023-07-02T15:16:39;24.1;41
74458;SHT31;62896;51.032;3.712;2023-07-02T15:19:59;24.1;41
74458;SHT31;62896;51.032;3.712;2023-07-02T15:23:19;25.4;40
74458;SHT31;62896;51.032;3.712;2023-07-02T15:26:41;25.4;40
74458;SHT31;62896;51.032;3.712;2023-07-02T15:29:59;25.4;40
74458;SHT31;62896;51.032;3.712;2023-07-02T15:33:19;25.8;39
74458;SHT31;62896;51.032;3.712;2023-07-02T15:36:39;25.8;39
74458;SHT31;62896;51.032;3.712;2023-07-02T15:39:59;25.8;39
74458;SHT31;62896;51.032;3.712;2023-07-02T15:43:19;25.6;39
74458;SHT31;62896;51.032;3.712;2023-07-02T15:46:39;25.6;39
74458;SHT31;62896;51.032;3.712;2023-07-02T15:49:59;25.6;39
74458;SHT31;62896;51.032;3.712;2023-07-02T15:53:19;25.1;39
74458;SHT31;62896;51.032;3.712;2023-07-02T15:56:39;25.1;39
74458;SHT31;62896;51.032;3.712;2023-07-02T15:59:59;25.1;39
74458;SHT31;62896;51.032;3.712;2023-07-02T16:03:19;24.6;40
74458;SHT31;62896;51.032;3.712;2023-07-02T16:06:39;24.6;40
74458;SHT31;62896;51.032;3.712;2023-07-02T16:09:59;24.6;40
74458;SHT31;62896;51.032;3.712;2023-07-02T16:13:19;24.7;40
74458;SHT31;62896;51.032;3.712;2023-07-02T16:16:40;24.7;40
74458;SHT31;62896;51.032;3.712;2023-07-02T16:19:59;24.7;40
74458;SHT31;62896;51.032;3.712;2023-07-02T16:23:19;23.8;42
74458;SHT31;62896;51.032;3.712;2023-07-02T16:26:39;23.8;42
74458;SHT31;62896;51.032;3.712;2023-07-02T16:29:59;23.8;42
74458;SHT31;62896;51.032;3.712;2023-07-02T16:33:19;23.4;42
74458;SHT31;62896;51.032;3.712;2023-07-02T16:36:39;23.4;42
74458;SHT31;62896;51.032;3.712;2023-07-02T16:39:59;23.4;42
74458;SHT31;62896;51.032;3.712;2023-07-02T16:43:19;22.8;44
74458;SHT31;62896;51.032;3.712;2023-07-02T16:46:39;22.8;44
74458;SHT31;62896;51.032;3.712;2023-07-02T16:49:59;22.8;44
74458;SHT31;62896;51.032;3.712;2023-07-02T16:53:19;22.1;45
74458;SHT31;62896;51.032;3.712;2023-07-02T16:56:39;22.1;45
74458;SHT31;62896;51.032;3.712;2023-07-02T16:59:59;22.1;45
74458;SHT31;62896;51.032;3.712;2023-07-02T17:03:19;21.8;45
74458;SHT31;62896;51.032;3.712;2023-07-02T17:06:40;21.8;45
74458;SHT31;62896;51.032;3.712;2023-07-02T17:09:59;21.8;45
74458;SHT31;62896;51.032;3.712;2023-07-02T17:13:19;21.9;45
74458;SHT31;62896;51.032;3.712;2023-07-02T17:16:39;21.9;45
74458;SHT31;62896;51.032;3.712;2023-07-02T17:19:59;21.9;45
74458;SHT31;62896;51.032;3.712;2023-07-02T17:23:20;21.5;46
74458;SHT31;62896;51.032;3.712;2023-07-02T17:26:39;21.5;46
74458;SHT31;62896;51.032;3.712;2023-07-02T17:30:00;21.5;46
74458;SHT31;62896;51.032;3.712;2023-07-02T17:33:19;21.4;46
74458;SHT31;62896;51.032;3.712;2023-07-02T17:36:39;21.4;46
74458;SHT31;62896;51.032;3.712;2023-07-02T17:39:59;21.4;46
74458;SHT31;62896;51.032;3.712;2023-07-02T17:43:19;21.4;47
74458;SHT31;62896;51.032;3.712;2023-07-02T17:46:40;21.4;47
74458;SHT31;62896;51.032;3.712;2023-07-02T17:49:59;21.4;47
74458;SHT31;62896;51.032;3.712;2023-07-02T17:53:19;20.9;47
74458;SHT31;62896;51.032;3.712;2023-07-02T17:56:39;20.9;47
74458;SHT31;62896;51.032;3.712;2023-07-02T17:59:59;20.9;47
74458;SHT31;62896;51.032;3.712;2023-07-02T18:03:19;20.6;48
74458;SHT31;62896;51.032;3.712;2023-07-02T18:06:40;20.6;48
74458;SHT31;62896;51.032;3.712;2023-07-02T18:09:59;20.6;48
74458;SHT31;62896;51.032;3.712;2023-07-02T18:13:19;20.3;48
74458;SHT31;62896;51.032;3.712;2023-07-02T18:16:39;20.3;48
74458;SHT31;62896;51.032;3.712;2023-07-02T18:19:59;20.3;48
74458;SHT31;62896;51.032;3.712;2023-07-02T18:23:20;20;50
74458;SHT31;62896;51.032;3.712;2023-07-02T18:26:39;20;50
74458;SHT31;62896;51.032;3.712;2023-07-02T18:29:59;20;50
74458;SHT31;62896;51.032;3.712;2023-07-02T18:33:19;19.6;51
74458;SHT31;62896;51.032;3.712;2023-07-02T18:36:39;19.6;51
74458;SHT31;62896;51.032;3.712;2023-07-02T18:40:00;19.6;51
74458;SHT31;62896;51.032;3.712;2023-07-02T18:43:19;19.5;52
74458;SHT31;62896;51.032;3.712;2023-07-02T18:46:40;19.5;52
74458;SHT31;62896;51.032;3.712;2023-07-02T18:49:59;19.5;52
74458;SHT31;62896;51.032;3.712;2023-07-02T18:53:20;19.4;53
74458;SHT31;62896;51.032;3.712;2023-07-02T18:56:39;19.4;53
74458;SHT31;62896;51.032;3.712;2023-07-02T19:00:00;19.4;53
74458;SHT31;62896;51.032;3.712;2023-07-02T19:03:19;19.1;54
74458;SHT31;62896;51.032;3.712;2023-07-02T19:06:39;19.1;54
74458;SHT31;62896;51.032;3.712;2023-07-02T19:10:00;19.1;54
74458;SHT31;62896;51.032;3.712;2023-07-02T19:13:19;18.9;55
74458;SHT31;62896;51.032;3.712;2023-07-02T19:16:39;18.9;55
74458;SHT31;62896;51.032;3.712;2023-07-02T19:19:59;18.9;55
74458;SHT31;62896;51.032;3.712;2023-07-02T19:23:19;18.6;56
74458;SHT31;62896;51.032;3.712;2023-07-02T19:26:39;18.6;56
74458;SHT31;62896;51.032;3.712;2023-07-02T19:29:59;18.6;56
74458;SHT31;62896;51.032;3.712;2023-07-02T19:33:19;18.5;57
74458;SHT31;62896;51.032;3.712;2023-07-02T19:36:39;18.5;57
74458;SHT31;62896;51.032;3.712;2023-07-02T19:39:59;18.5;57
74458;SHT31;62896;51.032;3.712;2023-07-02T19:43:19;18.4;57
74458;SHT31;62896;51.032;3.712;2023-07-02T19:46:40;18.4;57
74458;SHT31;62896;51.032;3.712;2023-07-02T19:49:59;18.4;57
74458;SHT31;62896;51.032;3.712;2023-07-02T19:53:19;18.3;57
74458;SHT31;62896;51.032;3.712;2023-07-02T19:56:39;18.3;57
74458;SHT31;62896;51.032;3.712;2023-07-02T19:59:59;18.3;57
74458;SHT31;62896;51.032;3.712;2023-07-02T20:03:19;18.2;57
74458;SHT31;62896;51.032;3.712;2023-07-02T20:06:39;18.2;57
74458;SHT31;62896;51.032;3.712;2023-07-02T20:09:59;18.2;57
74458;SHT31;62896;51.032;3.712;2023-07-02T20:13:19;18.2;58
74458;SHT31;62896;51.032;3.712;2023-07-02T20:16:39;18.2;58
74458;SHT31;62896;51.032;3.712;2023-07-02T20:19:59;18.2;58
74458;SHT31;62896;51.032;3.712;2023-07-02T20:23:20;18;58
74458;SHT31;62896;51.032;3.712;2023-07-02T20:26:39;18;58
74458;SHT31;62896;51.032;3.712;2023-07-02T20:29:59;18;58
74458;SHT31;62896;51.032;3.712;2023-07-02T20:33:19;17.9;58
74458;SHT31;62896;51.032;3.712;2023-07-02T20:36:39;17.9;58
74458;SHT31;62896;51.032;3.712;2023-07-02T20:40:00;17.9;58
74458;SHT31;62896;51.032;3.712;2023-07-02T20:43:19;17.7;59
74458;SHT31;62896;51.032;3.712;2023-07-02T20:46:39;17.7;59
74458;SHT31;62896;51.032;3.712;2023-07-02T20:50:00;17.7;59
74458;SHT31;62896;51.032;3.712;2023-07-02T20:53:19;17.6;60
74458;SHT31;62896;51.032;3.712;2023-07-02T20:56:40;17.6;60
74458;SHT31;62896;51.032;3.712;2023-07-02T21:00:00;17.6;60
74458;SHT31;62896;51.032;3.712;2023-07-02T21:03:19;17.4;61
74458;SHT31;62896;51.032;3.712;2023-07-02T21:06:39;17.4;61
74458;SHT31;62896;51.032;3.712;2023-07-02T21:10:00;17.4;61
74458;SHT31;62896;51.032;3.712;2023-07-02T21:13:20;17.3;63
74458;SHT31;62896;51.032;3.712;2023-07-02T21:16:40;17.3;63
74458;SHT31;62896;51.032;3.712;2023-07-02T21:20:00;17.3;63
74458;SHT31;62896;51.032;3.712;2023-07-02T21:23:20;17.3;63
74458;SHT31;62896;51.032;3.712;2023-07-02T21:26:40;17.3;63
74458;SHT31;62896;51.032;3.712;2023-07-02T21:30:00;17.3;63
74458;SHT31;62896;51.032;3.712;2023-07-02T21:33:20;17.1;64
74458;SHT31;62896;51.032;3.712;2023-07-02T21:36:40;17.1;64
74458;SHT31;62896;51.032;3.712;2023-07-02T21:40:00;17.1;64
74458;SHT31;62896;51.032;3.712;2023-07-02T21:43:20;17;65
74458;SHT31;62896;51.032;3.712;2023-07-02T21:46:40;17;65
74458;SHT31;62896;51.032;3.712;2023-07-02T21:50:00;17;65
74458;SHT31;62896;51.032;3.712;2023-07-02T21:53:20;16.8;66
74458;SHT31;62896;51.032;3.712;2023-07-02T21:56:40;16.8;66
74458;SHT31;62896;51.032;3.712;2023-07-02T22:00:00;16.8;66
74458;SHT31;62896;51.032;3.712;2023-07-02T22:03:20;16.6;67
74458;SHT31;62896;51.032;3.712;2023-07-02T22:06:40;16.6;67
74458;SHT31;62896;51.032;3.712;2023-07-02T22:10:00;16.6;67
74458;SHT31;62896;51.032;3.712;2023-07-02T22:13:20;16.5;68
74458;SHT31;62896;51.032;3.712;2023-07-02T22:16:40;16.5;68
74458;SHT31;62896;51.032;3.712;2023-07-02T22:20:00;16.5;68
74458;SHT31;62896;51.032;3.712;2023-07-02T22:23:20;16.3;69
74458;SHT31;62896;51.032;3.712;2023-07-02T22:26:40;16.3;69
74458;SHT31;62896;51.032;3.712;2023-07-02T22:30:00;16.3;69
74458;SHT31;62896;51.032;3.712;2023-07-02T22:33:20;16.3;70
74458;SHT31;62896;51.032;3.712;2023-07-02T22:36:40;16.3;70